Time;durP1;ratioP1;P1;durP2;ratioP2;P2;SDS_P1;SDS_P2;PMS_P1;PMS_P2;Temp;Humidity;BMP_temperature;BMP_pressure;BME280_temperature;BME280_humidity;BME280_pressure;Samples;Min_cycle;Max_cycle;Signal;HPM_P1;HPM_P2
2023/02/12 00:01:50;;;;;;;38.47;16.10;;;;;;;15.30;49.26;103570.22;4998197;28;20030;-62
2023/02/12 00:04:15;;;;;;;36.38;14.70;;;;;;;15.28;48.10;103569.47;5015214;28;20458;-61
2023/02/12 00:06:41;;;;;;;46.03;17.35;;;;;;;15.27;48.65;103573.13;5015043;28;20037;-62
2023/02/12 00:09:06;;;;;;;43.63;16.35;;;;;;;15.25;48.00;103569.66;5015371;28;20120;-62
2023/02/12 00:11:32;;;;;;;39.13;16.02;;;;;;;15.24;48.15;103573.34;5015322;28;20038;-62
2023/02/12 00:13:57;;;;;;;42.72;16.48;;;;;;;15.23;48.56;103576.09;4998784;28;20057;-63
2023/02/12 00:16:26;;;;;;;40.90;16.15;;;;;;;15.22;48.67;103577.94;4998813;28;20108;-61
2023/02/12 00:18:53;;;;;;;33.83;15.05;;;;;;;15.21;48.98;103578.91;4998735;28;20470;-63
2023/02/12 00:21:18;;;;;;;32.70;14.70;;;;;;;15.19;48.92;103585.38;5015676;28;20033;-62
2023/02/12 00:23:44;;;;;;;45.22;14.85;;;;;;;15.17;49.35;103588.16;5015126;28;20462;-62
2023/02/12 00:26:12;;;;;;;41.05;16.25;;;;;;;15.15;48.13;103574.75;5015140;28;20034;-62
2023/02/12 00:28:38;;;;;;;40.00;15.52;;;;;;;15.14;49.00;103581.09;4998724;28;20026;-62
2023/02/12 00:31:11;;;;;;;31.42;14.52;;;;;;;15.15;47.92;103579.28;5015308;28;20561;-62
2023/02/12 00:33:37;;;;;;;38.90;15.32;;;;;;;15.16;49.19;103581.00;5014883;28;20025;-62
2023/02/12 00:36:03;;;;;;;37.13;16.30;;;;;;;15.16;48.17;103581.00;5031672;28;20095;-63
2023/02/12 00:38:28;;;;;;;35.58;14.30;;;;;;;15.17;49.29;103582.75;5015187;28;20520;-62
2023/02/12 00:40:54;;;;;;;37.72;15.48;;;;;;;15.18;48.50;103589.03;4999003;28;20136;-62
2023/02/12 00:43:19;;;;;;;40.40;14.60;;;;;;;15.19;47.86;103590.78;5015025;28;20501;-62
2023/02/12 00:45:45;;;;;;;43.72;15.38;;;;;;;15.19;47.69;103588.06;5015228;28;20507;-62
2023/02/12 00:48:11;;;;;;;43.55;16.52;;;;;;;15.18;48.52;103589.91;5015468;28;20021;-62
2023/02/12 00:50:36;;;;;;;31.90;14.35;;;;;;;15.17;49.07;103588.16;5015274;28;20033;-62
2023/02/12 00:53:02;;;;;;;32.90;14.05;;;;;;;15.16;49.29;103587.28;5032999;28;20045;-62
2023/02/12 00:55:27;;;;;;;42.92;13.68;;;;;;;15.15;47.55;103584.69;5015176;28;20061;-62
2023/02/12 00:57:53;;;;;;;30.63;12.85;;;;;;;15.13;48.58;103578.50;5015052;28;20068;-62
2023/02/12 01:00:18;;;;;;;28.30;12.40;;;;;;;15.08;48.12;103572.47;5015360;28;20033;-62
2023/02/12 01:02:44;;;;;;;35.50;14.70;;;;;;;15.09;47.80;103574.22;5014764;28;20029;-61
2023/02/12 01:05:09;;;;;;;39.03;15.75;;;;;;;15.08;48.07;103572.47;5014603;28;20510;-63
2023/02/12 01:07:35;;;;;;;35.30;14.77;;;;;;;15.05;48.62;103573.53;4998203;28;20029;-62
2023/02/12 01:10:00;;;;;;;32.13;15.82;;;;;;;15.04;48.97;103570.94;5014739;28;20429;-62
2023/02/12 01:12:25;;;;;;;37.50;14.50;;;;;;;15.04;48.64;103576.34;5015123;28;20124;-62
2023/02/12 01:14:51;;;;;;;28.25;12.93;;;;;;;15.04;47.52;103576.34;5018003;28;20039;-62
2023/02/12 01:17:16;;;;;;;32.03;13.25;;;;;;;15.04;48.07;103573.66;5001751;28;20448;-62
2023/02/12 01:19:42;;;;;;;35.03;13.70;;;;;;;15.02;48.39;103572.84;5018046;28;20033;-61
2023/02/12 01:22:07;;;;;;;36.33;13.40;;;;;;;15.00;48.93;103566.66;5035724;28;20036;-62
2023/02/12 01:24:32;;;;;;;37.03;12.95;;;;;;;14.97;48.97;103578.53;5035775;28;20026;-62
2023/02/12 01:26:58;;;;;;;36.60;13.13;;;;;;;14.96;48.77;103573.22;5017968;28;20037;-62
2023/02/12 01:29:23;;;;;;;33.70;14.00;;;;;;;14.96;48.54;103578.63;5034397;28;20034;-62
2023/02/12 01:31:49;;;;;;;41.60;14.70;;;;;;;14.93;48.96;103573.41;5018132;28;20034;-62
2023/02/12 01:34:14;;;;;;;32.13;13.25;;;;;;;14.93;48.28;103570.72;5017738;28;20541;-63
2023/02/12 01:36:39;;;;;;;37.17;14.30;;;;;;;14.94;48.47;103569.72;5035082;28;20045;-62
2023/02/12 01:39:05;;;;;;;36.92;16.70;;;;;;;14.93;49.23;103579.69;5035650;28;20021;-62
2023/02/12 01:41:36;;;;;;;36.45;14.40;;;;;;;14.93;48.31;103568.00;5035033;28;20045;-62
2023/02/12 01:44:22;;;;;;;43.45;15.23;;;;;;;14.91;49.08;103575.31;5035226;28;20033;-62
2023/02/12 01:46:56;;;;;;;36.42;14.70;;;;;;;14.92;48.58;103566.25;5018860;28;20110;-62
2023/02/12 01:49:23;;;;;;;34.97;13.15;;;;;;;14.92;47.97;103566.25;5017597;28;20036;-61
2023/02/12 01:51:53;;;;;;;35.55;14.82;;;;;;;14.94;48.47;103564.31;5017405;28;20022;-62
2023/02/12 01:54:19;;;;;;;36.03;13.98;;;;;;;14.94;48.50;103558.94;5017798;28;20120;-62
2023/02/12 01:56:45;;;;;;;38.40;14.02;;;;;;;14.92;48.08;103555.47;5001145;28;20029;-62
2023/02/12 01:59:11;;;;;;;36.40;15.23;;;;;;;14.95;47.98;103556.16;5034990;28;20040;-61
2023/02/12 02:01:37;;;;;;;36.35;13.65;;;;;;;14.94;48.90;103558.94;5017368;28;20025;-61
2023/02/12 02:04:10;;;;;;;36.05;14.70;;;;;;;14.94;48.35;103559.81;5017319;28;20037;-61
2023/02/12 02:06:53;;;;;;;36.92;13.70;;;;;;;14.92;48.51;103552.75;5017199;28;20017;-62
2023/02/12 02:09:19;;;;;;;37.55;14.25;;;;;;;14.92;48.13;103560.88;5034026;28;20017;-62
2023/02/12 02:14:31;;;;;;;31.80;13.13;;;;;;;14.90;49.35;103552.88;5019787;28;20056;-62
2023/02/12 02:17:00;;;;;;;35.75;14.20;;;;;;;14.90;48.02;103554.69;5017390;28;20404;-62
2023/02/12 02:19:35;;;;;;;41.92;15.20;;;;;;;14.89;48.69;103559.22;5034675;28;20033;-61
2023/02/12 02:22:30;;;;;;;32.35;14.07;;;;;;;14.88;49.15;103556.63;5034736;28;20087;-62
2023/02/12 02:25:40;;;;;;;42.58;14.32;;;;;;;14.87;48.91;103560.28;5032523;28;20033;-62
2023/02/12 02:28:42;;;;;;;32.33;13.77;;;;;;;14.88;49.47;103559.31;4979624;28;20076;-62
2023/02/12 02:31:30;;;;;;;33.60;13.17;;;;;;;14.86;49.19;103562.09;5034799;28;20027;-62
2023/02/12 02:34:17;;;;;;;39.20;14.10;;;;;;;14.83;48.87;103564.97;5034509;28;20338;-62
2023/02/12 02:36:50;;;;;;;33.78;14.18;;;;;;;14.84;48.47;103557.75;5034239;28;20501;-62
2023/02/12 02:39:35;;;;;;;35.83;12.63;;;;;;;14.85;48.49;103549.53;5016864;28;20116;-63
2023/02/12 02:42:19;;;;;;;33.05;13.32;;;;;;;14.84;49.13;103552.34;5016701;28;20046;-62
2023/02/12 02:44:52;;;;;;;34.83;14.10;;;;;;;14.83;48.86;103550.59;5034242;28;20041;-62
2023/02/12 02:47:39;;;;;;;34.60;12.95;;;;;;;14.81;49.09;103547.13;5016426;28;20060;-62
2023/02/12 02:50:08;;;;;;;43.70;14.35;;;;;;;14.83;47.86;103556.00;5016794;28;20042;-62
2023/02/12 02:53:01;;;;;;;34.03;12.98;;;;;;;14.83;49.44;103545.19;4999936;28;20489;-61
2023/02/12 02:55:31;;;;;;;35.90;13.63;;;;;;;14.82;48.04;103549.75;5028978;28;20436;-62
2023/02/12 02:58:01;;;;;;;39.15;15.65;;;;;;;14.80;49.05;103540.84;5016222;28;20034;-62
2023/02/12 03:00:37;;;;;;;41.47;14.57;;;;;;;14.80;49.21;103550.78;5000205;28;20036;-62
2023/02/12 03:03:19;;;;;;;30.05;14.15;;;;;;;14.82;48.93;103543.47;5016540;28;20042;-62
2023/02/12 03:05:48;;;;;;;35.13;14.67;;;;;;;14.82;48.18;103546.19;5016079;28;20030;-62
2023/02/12 03:08:22;;;;;;;37.38;14.88;;;;;;;14.81;48.14;103552.53;5000232;28;20341;-62
2023/02/12 03:10:54;;;;;;;33.58;13.73;;;;;;;14.81;49.15;103547.13;5032692;28;20021;-62
2023/02/12 03:13:24;;;;;;;34.78;13.07;;;;;;;14.75;48.83;103536.69;5016045;28;20053;-63
2023/02/12 03:16:09;;;;;;;33.10;13.95;;;;;;;14.82;48.80;103543.47;5016406;28;20025;-62
2023/02/12 03:18:40;;;;;;;47.65;15.27;;;;;;;14.82;48.98;103548.88;5017269;28;20056;-63
2023/02/12 03:21:11;;;;;;;40.95;15.32;;;;;;;14.81;48.18;103552.53;5017090;28;20100;-62
2023/02/12 03:23:43;;;;;;;38.60;14.88;;;;;;;14.85;48.96;103548.69;5015832;28;20026;-62
2023/02/12 03:26:20;;;;;;;40.38;16.00;;;;;;;14.84;48.84;103546.94;5015750;28;20041;-62
2023/02/12 03:28:46;;;;;;;34.45;15.00;;;;;;;14.86;48.43;103545.03;5015470;28;20109;-63
2023/02/12 03:31:18;;;;;;;41.05;15.68;;;;;;;14.86;48.21;103545.03;5015904;28;20039;-62
2023/02/12 03:34:08;;;;;;;35.85;14.10;;;;;;;14.85;48.07;103544.16;5033088;28;20030;-62
2023/02/12 03:36:51;;;;;;;34.63;13.77;;;;;;;14.81;48.25;103541.72;5032154;28;20053;-62
2023/02/12 03:39:36;;;;;;;29.80;13.38;;;;;;;14.76;48.99;103549.22;5033523;28;20079;-62
2023/02/12 03:42:07;;;;;;;40.65;14.73;;;;;;;14.71;48.15;103545.94;5015520;28;20076;-62
2023/02/12 03:44:44;;;;;;;39.38;15.02;;;;;;;14.72;49.36;103547.66;5032966;28;20036;-62
2023/02/12 03:47:21;;;;;;;36.40;14.10;;;;;;;14.71;48.98;103551.34;5033152;28;20044;-62
2023/02/12 03:50:26;;;;;;;34.40;13.30;;;;;;;14.72;49.04;103547.66;4999013;28;20037;-63
2023/02/12 03:52:52;;;;;;;37.47;13.55;;;;;;;14.75;47.94;103547.47;5031693;28;20120;-62
2023/02/12 03:55:17;;;;;;;30.52;13.85;;;;;;;14.75;48.69;103542.97;4998994;28;20064;-62
2023/02/12 03:57:46;;;;;;;45.13;17.60;;;;;;;14.78;49.36;103547.31;5032812;28;20030;-62
2023/02/12 04:00:17;;;;;;;45.42;18.83;;;;;;;14.77;47.92;103551.81;4999168;28;20025;-62
2023/02/12 04:02:43;;;;;;;45.75;17.83;;;;;;;14.76;49.04;103544.72;5015245;28;20029;-62
2023/02/12 04:05:22;;;;;;;37.25;15.68;;;;;;;14.78;47.95;103552.69;5032933;28;20116;-62
2023/02/12 04:07:48;;;;;;;46.45;16.38;;;;;;;14.76;49.47;103543.84;5033014;28;20025;-62
2023/02/12 04:10:14;;;;;;;43.25;16.17;;;;;;;14.76;49.02;103550.09;4982380;28;20030;-62
2023/02/12 04:12:53;;;;;;;41.83;15.20;;;;;;;14.75;48.61;103552.88;4998611;28;20024;-62
2023/02/12 04:15:36;;;;;;;42.25;16.25;;;;;;;14.72;48.61;103545.84;5015785;28;20021;-62
2023/02/12 04:18:10;;;;;;;44.67;16.10;;;;;;;14.75;48.74;103558.28;5032870;28;20095;-61
2023/02/12 04:21:04;;;;;;;40.30;16.88;;;;;;;14.73;48.41;103563.78;5033162;28;20262;-62
2023/02/12 04:23:45;;;;;;;41.60;15.65;;;;;;;14.74;48.07;103561.97;5014976;28;20029;-62
2023/02/12 04:26:17;;;;;;;41.47;16.38;;;;;;;14.72;48.29;103564.72;5032642;28;20583;-62
2023/02/12 04:29:17;;;;;;;36.80;14.85;;;;;;;14.72;48.27;103563.84;5015069;28;20116;-62
2023/02/12 04:31:52;;;;;;;43.25;15.40;;;;;;;14.71;48.39;103567.53;5032699;28;20108;-62
2023/02/12 04:34:25;;;;;;;43.53;15.07;;;;;;;14.71;48.83;103576.50;5014603;28;20505;-63
2023/02/12 04:36:58;;;;;;;48.03;16.77;;;;;;;14.72;48.41;103574.63;4998250;28;20112;-63
2023/02/12 04:39:29;;;;;;;41.05;15.85;;;;;;;14.72;48.93;103563.84;5015229;28;20029;-62
2023/02/12 04:41:58;;;;;;;35.08;14.70;;;;;;;14.72;48.36;103569.25;4998435;28;20061;-62
2023/02/12 04:44:26;;;;;;;39.08;14.60;;;;;;;14.71;48.90;103567.53;5014622;28;20520;-62
2023/02/12 04:46:52;;;;;;;41.90;14.45;;;;;;;14.71;49.50;103568.41;5014815;28;20029;-62
2023/02/12 04:49:19;;;;;;;39.08;15.05;;;;;;;14.72;49.54;103574.63;5017579;28;20030;-62
2023/02/12 04:51:45;;;;;;;38.80;15.80;;;;;;;14.73;49.40;103571.00;5002154;28;20473;-62
2023/02/12 04:54:10;;;;;;;38.78;14.77;;;;;;;14.74;48.83;103578.13;5036652;28;20040;-61
2023/02/12 04:56:36;;;;;;;42.80;15.88;;;;;;;14.73;48.05;103579.97;5018580;28;20029;-62
2023/02/12 04:59:01;;;;;;;39.60;14.90;;;;;;;14.74;48.31;103584.38;5036187;28;20033;-62
2023/02/12 05:01:27;;;;;;;37.40;15.05;;;;;;;14.71;48.55;103567.53;5018288;28;20040;-62
2023/02/12 05:03:52;;;;;;;45.03;14.77;;;;;;;14.74;49.08;103570.03;5002152;28;20397;-62
2023/02/12 05:06:18;;;;;;;37.42;15.20;;;;;;;14.73;49.28;103566.47;5036417;28;20485;-62
2023/02/12 05:08:43;;;;;;;43.00;16.70;;;;;;;14.72;48.94;103571.94;4985856;28;20029;-62
2023/02/12 05:11:10;;;;;;;47.17;17.80;;;;;;;14.73;48.10;103574.56;5018146;28;20033;-62
2023/02/12 05:13:35;;;;;;;40.45;14.85;;;;;;;14.71;49.04;103583.72;5018352;28;20116;-62
2023/02/12 05:16:05;;;;;;;41.75;16.88;;;;;;;14.69;49.13;103574.81;5018160;28;20125;-62
2023/02/12 05:18:31;;;;;;;45.30;16.90;;;;;;;14.69;48.44;103569.41;5034855;28;20033;-62
2023/02/12 05:21:01;;;;;;;43.63;16.80;;;;;;;14.69;48.53;103574.81;5017975;28;20037;-62
2023/02/12 05:23:28;;;;;;;41.58;14.48;;;;;;;14.71;48.52;103578.31;5034822;28;20389;-62
2023/02/12 05:25:53;;;;;;;45.67;16.40;;;;;;;14.71;49.83;103579.19;5017932;28;20038;-62
2023/02/12 05:28:19;;;;;;;42.63;16.13;;;;;;;14.69;49.47;103575.69;5018187;28;20048;-61
2023/02/12 05:30:44;;;;;;;38.42;15.75;;;;;;;14.72;48.83;103580.03;5017809;28;20029;-62
2023/02/12 05:33:09;;;;;;;50.60;15.55;;;;;;;14.70;49.09;103585.53;5001772;28;20029;-62
2023/02/12 05:35:35;;;;;;;40.22;15.40;;;;;;;14.70;49.50;103582.84;5035172;28;20057;-63
2023/02/12 05:38:00;;;;;;;36.50;16.05;;;;;;;14.70;49.18;103587.34;5017843;28;20036;-62
2023/02/12 05:40:26;;;;;;;35.88;16.02;;;;;;;14.65;48.34;103574.16;5018013;28;20033;-62
2023/02/12 05:42:52;;;;;;;51.17;16.98;;;;;;;14.70;49.54;103598.16;5035884;28;20041;-61
2023/02/12 05:45:17;;;;;;;42.00;15.40;;;;;;;14.68;49.23;103594.69;5002123;28;20087;-61
2023/02/12 05:47:42;;;;;;;39.38;15.63;;;;;;;14.65;48.59;103589.47;5017539;28;20030;-63
2023/02/12 05:50:08;;;;;;;39.08;14.27;;;;;;;14.65;48.07;103593.03;5017334;28;20156;-62
2023/02/12 05:52:33;;;;;;;40.50;16.05;;;;;;;14.64;48.75;103593.09;5017427;28;20436;-62
2023/02/12 05:54:59;;;;;;;38.47;14.52;;;;;;;14.63;48.21;103592.22;5017428;28;20528;-62
2023/02/12 05:57:24;;;;;;;38.90;15.20;;;;;;;14.66;49.48;103601.97;5035111;28;20033;-62
2023/02/12 05:59:50;;;;;;;38.63;16.17;;;;;;;14.65;49.08;103595.72;5034680;28;20048;-61
2023/02/12 06:02:15;;;;;;;38.67;14.75;;;;;;;14.63;49.58;103594.06;5018517;28;20038;-62
2023/02/12 06:04:40;;;;;;;43.78;15.73;;;;;;;14.63;49.71;103592.22;5036871;28;20037;-62
2023/02/12 06:07:08;;;;;;;42.72;17.63;;;;;;;14.64;48.75;103590.41;5035463;28;20564;-62
2023/02/12 06:09:34;;;;;;;47.38;17.45;;;;;;;14.65;48.79;103594.84;5001067;28;20389;-63
2023/02/12 06:12:00;;;;;;;40.30;16.38;;;;;;;14.66;48.96;103597.44;5017682;28;20021;-62
2023/02/12 06:14:25;;;;;;;43.83;15.77;;;;;;;14.65;49.96;103593.03;5017155;28;20037;-62
2023/02/12 06:16:51;;;;;;;43.13;14.48;;;;;;;14.65;49.72;103594.84;5000733;28;20048;-62
2023/02/12 06:19:18;;;;;;;42.00;15.70;;;;;;;14.64;48.55;103598.50;5033328;28;20033;-62
2023/02/12 06:21:44;;;;;;;33.22;14.52;;;;;;;14.61;49.69;103596.84;5034543;28;20052;-62
2023/02/12 06:24:14;;;;;;;31.50;13.35;;;;;;;14.60;49.44;103596.94;5001099;28;20505;-62
2023/02/12 06:26:39;;;;;;;36.80;14.40;;;;;;;14.58;49.24;103599.72;4984230;28;20061;-62
2023/02/12 06:29:04;;;;;;;35.08;13.73;;;;;;;14.57;49.03;103600.69;5034606;28;20072;-62
2023/02/12 06:31:35;;;;;;;35.45;13.88;;;;;;;14.55;50.01;103606.16;5000444;28;20032;-62
2023/02/12 06:34:02;;;;;;;36.90;15.75;;;;;;;14.55;48.76;103611.56;5016614;28;20030;-62
2023/02/12 06:36:28;;;;;;;42.08;16.90;;;;;;;14.55;48.79;103610.69;5016914;28;20184;-62
2023/02/12 06:38:53;;;;;;;45.63;16.33;;;;;;;14.55;49.72;103624.16;5016380;28;20544;-62
2023/02/12 06:41:20;;;;;;;35.42;14.82;;;;;;;14.56;49.51;103616.00;5016793;28;20033;-62
2023/02/12 06:43:45;;;;;;;43.78;16.73;;;;;;;14.55;49.68;103614.25;5016748;28;20044;-62
2023/02/12 06:46:11;;;;;;;44.15;15.70;;;;;;;14.57;49.27;103616.88;5034116;28;20505;-62
2023/02/12 06:48:37;;;;;;;42.30;17.58;;;;;;;14.56;48.74;103607.91;4999919;28;20026;-62
2023/02/12 06:51:07;;;;;;;48.17;18.58;;;;;;;14.55;48.93;103605.28;5016989;28;20032;-61
2023/02/12 06:53:33;;;;;;;42.47;15.85;;;;;;;14.56;49.10;103612.44;5016122;28;20041;-61
2023/02/12 06:56:03;;;;;;;37.58;15.02;;;;;;;14.57;49.39;103625.81;4999948;28;20037;-62
2023/02/12 06:58:29;;;;;;;38.97;15.05;;;;;;;14.55;49.57;103611.56;5016999;28;20030;-62
2023/02/12 07:00:54;;;;;;;39.30;15.32;;;;;;;14.56;48.27;103629.50;5016230;28;20037;-62
2023/02/12 07:03:19;;;;;;;34.72;15.35;;;;;;;14.55;49.49;103622.34;5016723;28;20072;-62
2023/02/12 07:05:47;;;;;;;40.47;15.20;;;;;;;14.54;49.51;103630.53;4999688;28;20037;-62
2023/02/12 07:08:12;;;;;;;42.65;15.40;;;;;;;14.55;49.55;103633.13;5016224;28;20029;-63
2023/02/12 07:10:38;;;;;;;40.65;15.68;;;;;;;14.55;48.19;103641.22;4999523;28;20575;-62
2023/02/12 07:13:04;;;;;;;45.53;16.27;;;;;;;14.56;49.05;103640.28;5031949;28;20076;-62
2023/02/12 07:15:29;;;;;;;34.03;14.77;;;;;;;14.56;49.81;103640.28;5000098;28;20421;-62
2023/02/12 07:17:54;;;;;;;45.40;16.92;;;;;;;14.56;50.01;103634.00;5033612;28;20034;-62
2023/02/12 07:20:20;;;;;;;38.42;17.27;;;;;;;14.55;48.78;103632.25;4999441;28;20529;-63
2023/02/12 07:22:45;;;;;;;36.47;14.35;;;;;;;14.57;49.61;103647.41;4999672;28;20027;-62
2023/02/12 07:25:10;;;;;;;44.38;15.00;;;;;;;14.58;48.34;103637.47;4999899;28;20037;-62
2023/02/12 07:27:36;;;;;;;43.10;16.02;;;;;;;14.57;49.03;103636.59;5016376;28;20026;-62
2023/02/12 07:30:04;;;;;;;41.00;15.55;;;;;;;14.57;48.56;103642.00;5016350;28;20028;-62
2023/02/12 07:32:31;;;;;;;44.65;14.95;;;;;;;14.59;49.98;103641.94;5033655;28;20064;-62
2023/02/12 07:34:56;;;;;;;35.63;15.27;;;;;;;14.61;49.28;103647.22;5015775;28;20034;-62
2023/02/12 07:37:22;;;;;;;41.08;15.20;;;;;;;14.61;48.96;103641.84;5015314;28;20394;-62
2023/02/12 07:39:48;;;;;;;39.50;15.82;;;;;;;14.63;48.60;103648.03;5015430;28;20021;-62
2023/02/12 07:42:14;;;;;;;37.70;14.52;;;;;;;14.63;49.67;103650.72;4999462;28;20029;-62
2023/02/12 07:44:39;;;;;;;40.55;15.38;;;;;;;14.64;50.02;103652.44;4999660;28;20497;-62
2023/02/12 07:47:05;;;;;;;44.30;15.90;;;;;;;14.66;48.98;103655.94;5033281;28;20037;-62
2023/02/12 07:49:30;;;;;;;44.97;16.35;;;;;;;14.67;50.16;103652.28;5033358;28;20494;-62
2023/02/12 07:51:56;;;;;;;38.45;15.88;;;;;;;14.69;49.87;103653.06;5033221;28;20092;-62
2023/02/12 07:54:21;;;;;;;34.67;14.80;;;;;;;14.71;49.80;103656.56;4999278;28;20092;-62
2023/02/12 07:56:47;;;;;;;40.65;15.80;;;;;;;14.72;49.76;103656.47;5015568;28;20504;-61
2023/02/12 07:59:15;;;;;;;45.80;16.65;;;;;;;14.74;48.65;103648.28;5015314;28;20033;-62
2023/02/12 08:01:44;;;;;;;40.90;15.35;;;;;;;14.76;49.39;103649.06;5015394;28;20029;-62
2023/02/12 08:04:13;;;;;;;44.85;16.38;;;;;;;14.80;50.08;103656.00;5015693;28;20030;-62
2023/02/12 08:06:40;;;;;;;46.50;16.67;;;;;;;14.83;48.66;103659.41;5032048;28;20499;-62
2023/02/12 08:09:08;;;;;;;44.35;16.48;;;;;;;14.88;48.37;103661.88;5015911;28;20021;-62
2023/02/12 08:11:35;;;;;;;49.72;17.85;;;;;;;14.92;49.42;103658.03;4998995;28;20060;-62
2023/02/12 08:14:01;;;;;;;43.35;17.30;;;;;;;14.95;48.44;103658.72;4998801;28;20033;-62
2023/02/12 08:16:28;;;;;;;47.60;16.35;;;;;;;14.99;49.38;103660.28;5032790;28;20481;-62
2023/02/12 08:18:54;;;;;;;43.97;16.25;;;;;;;15.02;48.48;103653.81;4998683;28;20037;-62
2023/02/12 08:21:21;;;;;;;46.22;18.70;;;;;;;15.06;48.93;103660.81;4999382;28;20036;-62
2023/02/12 08:23:50;;;;;;;56.20;19.08;;;;;;;15.11;49.46;103658.69;5000780;28;20064;-61
2023/02/12 08:26:19;;;;;;;47.42;18.35;;;;;;;15.15;49.66;103662.97;5019472;28;20064;-62
2023/02/12 08:28:48;;;;;;;49.17;19.92;;;;;;;15.19;48.94;103658.28;5036911;28;20438;-62
2023/02/12 08:31:18;;;;;;;47.95;18.10;;;;;;;15.23;48.80;103657.13;5002757;28;20413;-62
2023/02/12 08:33:45;;;;;;;48.08;17.17;;;;;;;15.27;48.97;103664.94;5036495;28;20028;-62
2023/02/12 08:36:14;;;;;;;44.00;18.95;;;;;;;15.29;49.32;103668.44;5008254;28;20041;-62
2023/02/12 08:38:39;;;;;;;43.30;18.52;;;;;;;15.33;49.41;103663.72;5038776;28;20520;-62
2023/02/12 08:41:07;;;;;;;45.83;17.15;;;;;;;15.36;48.80;103659.00;5038567;28;20037;-61
2023/02/12 08:43:34;;;;;;;52.10;19.23;;;;;;;15.40;49.68;103667.81;5055225;28;20104;-62
2023/02/12 08:46:08;;;;;;;57.85;21.58;;;;;;;15.44;48.46;103670.22;5022146;28;20172;-62
2023/02/12 08:48:34;;;;;;;55.85;17.88;;;;;;;15.45;49.82;103671.09;5039072;28;20025;-62
2023/02/12 08:51:08;;;;;;;50.78;20.10;;;;;;;15.51;49.84;103668.94;5055205;28;20492;-62
2023/02/12 08:53:34;;;;;;;56.08;20.30;;;;;;;15.55;49.58;103666.94;5049348;28;20087;-61
2023/02/12 08:55:59;;;;;;;55.20;21.17;;;;;;;15.58;48.91;103670.31;5046252;28;20030;-61
2023/02/12 08:58:25;;;;;;;38.42;17.58;;;;;;;15.61;48.90;103680.06;5027337;28;20493;-62
2023/02/12 09:00:50;;;;;;;50.35;19.65;;;;;;;15.64;48.97;103672.66;5010961;28;20083;-62
2023/02/12 09:03:15;;;;;;;50.03;20.52;;;;;;;15.68;49.88;103670.63;5043901;28;20053;-62
2023/02/12 09:05:41;;;;;;;48.08;19.55;;;;;;;15.72;48.38;103674.88;5045523;28;20033;-61
2023/02/12 09:08:07;;;;;;;54.22;19.02;;;;;;;15.76;49.01;103679.16;5043776;28;20040;-62
2023/02/12 09:10:33;;;;;;;55.28;21.02;;;;;;;15.79;48.57;103678.09;5025288;28;20038;-62
2023/02/12 09:12:58;;;;;;;51.13;20.25;;;;;;;15.82;49.75;103670.66;5044525;28;20552;-62
2023/02/12 09:15:24;;;;;;;56.30;20.15;;;;;;;15.86;49.67;103665.91;5027727;28;20108;-62
2023/02/12 09:17:49;;;;;;;52.50;21.15;;;;;;;15.89;49.77;103663.91;5025592;28;20029;-62
2023/02/12 09:20:15;;;;;;;47.47;19.83;;;;;;;15.93;49.75;103670.00;5029606;28;20030;-62
2023/02/12 09:22:40;;;;;;;54.95;20.05;;;;;;;15.96;49.15;103668.00;5044164;28;20044;-62
2023/02/12 09:25:05;;;;;;;51.58;20.80;;;;;;;16.00;48.69;103671.34;5042643;28;20653;-62
2023/02/12 09:27:31;;;;;;;51.15;21.48;;;;;;;16.01;48.63;103662.28;5028797;28;20029;-62
2023/02/12 09:29:56;;;;;;;48.45;18.80;;;;;;;16.05;48.13;103666.56;5037910;28;20520;-62
2023/02/12 09:32:22;;;;;;;49.97;19.25;;;;;;;16.11;49.77;103674.25;5055747;28;20044;-62
2023/02/12 09:34:47;;;;;;;52.80;21.08;;;;;;;16.14;48.54;103674.06;5019952;28;20055;-62
2023/02/12 09:37:12;;;;;;;49.40;19.70;;;;;;;16.17;48.96;103671.19;5055243;28;20049;-62
2023/02/12 09:39:39;;;;;;;45.67;18.42;;;;;;;16.22;49.17;103671.75;5037308;28;20041;-62
2023/02/12 09:42:14;;;;;;;53.42;20.35;;;;;;;16.24;48.93;103675.25;5021570;28;20029;-62
2023/02/12 09:45:14;;;;;;;52.40;21.80;;;;;;;16.26;49.20;103668.78;5055082;28;20033;-62
2023/02/12 09:47:45;;;;;;;50.13;21.23;;;;;;;16.30;48.29;103675.72;5055040;28;20041;-62
2023/02/12 09:50:26;;;;;;;53.17;21.92;;;;;;;16.34;47.84;103673.69;5055145;28;20037;-63
2023/02/12 09:52:55;;;;;;;50.75;21.02;;;;;;;16.36;48.22;103674.47;5037260;28;20040;-63
2023/02/12 09:55:21;;;;;;;58.33;20.13;;;;;;;16.39;49.10;103685.09;5037602;28;20104;-62
2023/02/12 09:57:47;;;;;;;50.70;18.60;;;;;;;16.39;48.52;103678.84;5037298;28;20125;-62
2023/02/12 10:00:20;;;;;;;48.42;20.25;;;;;;;16.44;48.57;103680.28;5037554;28;20173;-62
2023/02/12 10:02:49;;;;;;;45.65;19.35;;;;;;;16.45;48.86;103679.31;5054929;28;20116;-62
2023/02/12 10:05:22;;;;;;;62.40;24.15;;;;;;;16.49;48.92;103686.28;5037162;28;20115;-62
2023/02/12 10:08:15;;;;;;;53.42;22.10;;;;;;;16.52;48.50;103688.78;5020396;28;20544;-62
2023/02/12 10:10:51;;;;;;;46.72;19.58;;;;;;;16.52;47.95;103688.78;5036873;28;20516;-62
2023/02/12 10:13:26;;;;;;;49.92;20.73;;;;;;;16.55;48.71;103685.03;5036820;28;20033;-62
2023/02/12 10:16:06;;;;;;;48.72;20.02;;;;;;;16.58;49.21;103691.09;5036988;28;20075;-62
2023/02/12 10:19:02;;;;;;;46.80;19.40;;;;;;;16.61;48.38;103693.63;5021042;28;20024;-62
2023/02/12 10:21:27;;;;;;;48.85;20.90;;;;;;;16.62;47.89;103686.38;5055383;28;20045;-61
2023/02/12 10:24:08;;;;;;;48.47;18.83;;;;;;;16.64;48.22;103685.31;5037375;28;20037;-62
2023/02/12 10:26:48;;;;;;;50.28;20.38;;;;;;;16.65;48.67;103687.06;5020907;28;20033;-61
2023/02/12 10:29:20;;;;;;;48.85;18.45;;;;;;;16.69;48.02;103685.91;5037863;28;20087;-62
2023/02/12 10:31:49;;;;;;;46.30;20.93;;;;;;;16.72;48.86;103682.13;5037994;28;20033;-62
2023/02/12 10:34:20;;;;;;;40.80;18.80;;;;;;;16.72;48.55;103680.25;5037576;28;20497;-63
2023/02/12 10:36:54;;;;;;;51.03;20.92;;;;;;;16.77;49.33;103683.56;5020086;28;20068;-62
2023/02/12 10:39:35;;;;;;;49.25;20.13;;;;;;;16.80;48.46;103687.91;5037833;28;20021;-62
2023/02/12 10:42:04;;;;;;;47.38;19.63;;;;;;;16.82;48.09;103689.53;5020142;28;20044;-62
2023/02/12 10:44:30;;;;;;;51.80;19.77;;;;;;;16.85;48.01;103694.75;5054126;28;20448;-63
2023/02/12 10:46:55;;;;;;;47.92;19.42;;;;;;;16.86;48.07;103688.34;5052581;28;20033;-62
2023/02/12 10:49:21;;;;;;;57.30;21.67;;;;;;;16.87;49.06;103684.69;5053957;28;20472;-62
2023/02/12 10:51:49;;;;;;;50.15;19.58;;;;;;;16.91;48.12;103689.91;5052891;28;20480;-62
2023/02/12 10:54:31;;;;;;;49.83;18.65;;;;;;;16.91;48.37;103681.78;5036464;28;20025;-62
2023/02/12 10:56:57;;;;;;;51.70;20.52;;;;;;;16.92;48.51;103688.97;5036134;28;20037;-62
2023/02/12 10:59:23;;;;;;;44.92;20.60;;;;;;;16.93;48.10;103687.97;5003421;28;20386;-62
2023/02/12 11:01:48;;;;;;;47.33;19.42;;;;;;;16.96;49.03;103685.06;5019862;28;20112;-62
2023/02/12 11:04:26;;;;;;;45.72;19.30;;;;;;;16.93;47.63;103682.56;5035834;28;20401;-62
2023/02/12 11:07:09;;;;;;;49.70;19.48;;;;;;;16.95;47.76;103677.88;5019848;28;20548;-63
2023/02/12 11:09:44;;;;;;;47.85;20.63;;;;;;;16.95;48.07;103678.78;5019318;28;20382;-62
2023/02/12 11:12:29;;;;;;;45.42;18.17;;;;;;;16.98;48.16;103677.69;5036959;28;20017;-63
2023/02/12 11:15:16;;;;;;;48.33;18.80;;;;;;;16.99;48.48;103674.03;5036105;28;20044;-62
2023/02/12 11:17:55;;;;;;;42.42;17.67;;;;;;;17.00;48.23;103675.78;5036010;28;20412;-62
2023/02/12 11:20:24;;;;;;;48.22;19.15;;;;;;;17.03;47.49;103673.72;5032375;28;20036;-62
2023/02/12 11:22:49;;;;;;;46.40;19.20;;;;;;;17.06;47.19;103669.94;5035994;28;20563;-63
2023/02/12 11:25:15;;;;;;;49.35;19.23;;;;;;;17.08;48.03;103657.19;5035381;28;20037;-62